JAI15B VOMM-VOBL
Flight info
| Callsign | JAI15B |
|---|---|
| Flight time | 0h 37m |
| Altitude | 16000 |
| Route | MMV W117 BIA |
| Aircraft | A339/H-SADE1E2E3GHIJ3J5M1P2RWXY/LB2D1 |
Departure
| Time | 2026-05-06 17:06 |
|---|---|
| Airport | Chennai International Airport (VOMM) |
Arrival
| Time | 2026-05-06 17:43 |
|---|---|
| Airport | Kempegowda International Airport Bengaluru (VOBL) |
| Time | Latitude | Longitude | Altitude | Speed | Heading |
|---|---|---|---|---|---|
| 2026-05-06 16:54 | 12.98233 | 80.15986 | 51 ft | 0 kts | 157° |
| 2026-05-06 16:59 | 12.98234 | 80.15986 | 51 ft | 1 kts | 157° |
| 2026-05-06 16:59 | 12.98239 | 80.15984 | 51 ft | 1 kts | 157° |
| 2026-05-06 16:59 | 12.98246 | 80.15981 | 51 ft | 2 kts | 157° |
| 2026-05-06 17:00 | 12.98259 | 80.15975 | 51 ft | 2 kts | 167° |
| 2026-05-06 17:00 | 12.98273 | 80.15971 | 51 ft | 2 kts | 181° |
| 2026-05-06 17:00 | 12.98287 | 80.15971 | 51 ft | 2 kts | 199° |
| 2026-05-06 17:00 | 12.98288 | 80.15972 | 51 ft | 1 kts | 200° |
| 2026-05-06 17:01 | 12.98312 | 80.15987 | 51 ft | 6 kts | 236° |
| 2026-05-06 17:01 | 12.98319 | 80.15998 | 51 ft | 0 kts | 241° |
| 2026-05-06 17:01 | 12.98313 | 80.15986 | 51 ft | 4 kts | 241° |
| 2026-05-06 17:02 | 12.98293 | 80.15941 | 57 ft | 9 kts | 250° |
| 2026-05-06 17:02 | 12.98298 | 80.15871 | 60 ft | 11 kts | 285° |
| 2026-05-06 17:02 | 12.98325 | 80.15790 | 55 ft | 13 kts | 288° |
| 2026-05-06 17:02 | 12.98352 | 80.15695 | 55 ft | 14 kts | 283° |
| 2026-05-06 17:03 | 12.98370 | 80.15620 | 57 ft | 10 kts | 284° |
| 2026-05-06 17:03 | 12.98385 | 80.15560 | 56 ft | 0 kts | 284° |
| 2026-05-06 17:04 | 12.98389 | 80.15544 | 53 ft | 5 kts | 284° |
| 2026-05-06 17:04 | 12.98403 | 80.15492 | 52 ft | 9 kts | 286° |
| 2026-05-06 17:05 | 12.98447 | 80.15452 | 54 ft | 8 kts | 356° |
| 2026-05-06 17:05 | 12.98489 | 80.15494 | 52 ft | 9 kts | 57° |
| 2026-05-06 17:05 | 12.98533 | 80.15608 | 52 ft | 42 kts | 70° |
| 2026-05-06 17:05 | 12.98755 | 80.16202 | 56 ft | 132 kts | 69° |
| 2026-05-06 17:06 | 12.99177 | 80.17297 | 155 ft | 190 kts | 69° |
| 2026-05-06 17:06 | 12.99702 | 80.18614 | 713 ft | 209 kts | 70° |
| 2026-05-06 17:06 | 13.00267 | 80.20045 | 1294 ft | 223 kts | 70° |
| 2026-05-06 17:06 | 13.01082 | 80.21463 | 1826 ft | 239 kts | 52° |
| 2026-05-06 17:07 | 13.02374 | 80.22578 | 2452 ft | 248 kts | 32° |
| 2026-05-06 17:07 | 13.04010 | 80.23177 | 3053 ft | 256 kts | 7° |
| 2026-05-06 17:07 | 13.05762 | 80.22855 | 3617 ft | 265 kts | 331° |
| 2026-05-06 17:07 | 13.06984 | 80.21452 | 4174 ft | 270 kts | 294° |
| 2026-05-06 17:08 | 13.07533 | 80.19564 | 4645 ft | 282 kts | 283° |
| 2026-05-06 17:08 | 13.07934 | 80.17557 | 5100 ft | 290 kts | 282° |
| 2026-05-06 17:08 | 13.08274 | 80.15586 | 5524 ft | 274 kts | 280° |
| 2026-05-06 17:08 | 13.08554 | 80.13646 | 5945 ft | 279 kts | 278° |
| 2026-05-06 17:09 | 13.08795 | 80.11622 | 6417 ft | 289 kts | 278° |
| 2026-05-06 17:09 | 13.09132 | 80.09601 | 7135 ft | 287 kts | 283° |
| 2026-05-06 17:09 | 13.09551 | 80.07583 | 7744 ft | 292 kts | 283° |
| 2026-05-06 17:09 | 13.09972 | 80.05529 | 8365 ft | 295 kts | 283° |
| 2026-05-06 17:10 | 13.10379 | 80.03408 | 8988 ft | 300 kts | 282° |
| 2026-05-06 17:10 | 13.10756 | 80.01320 | 9630 ft | 304 kts | 282° |
| 2026-05-06 17:10 | 13.11134 | 79.99165 | 10154 ft | 312 kts | 282° |
| 2026-05-06 17:10 | 13.11527 | 79.96901 | 10334 ft | 332 kts | 281° |
| 2026-05-06 17:11 | 13.11939 | 79.94512 | 10503 ft | 349 kts | 281° |
| 2026-05-06 17:11 | 13.12368 | 79.92014 | 10948 ft | 356 kts | 281° |
| 2026-05-06 17:11 | 13.12798 | 79.89508 | 11562 ft | 358 kts | 281° |
| 2026-05-06 17:11 | 13.13231 | 79.86984 | 12159 ft | 360 kts | 281° |
| 2026-05-06 17:12 | 13.13669 | 79.84443 | 12743 ft | 362 kts | 280° |
| 2026-05-06 17:12 | 13.14108 | 79.81895 | 13309 ft | 365 kts | 280° |
| 2026-05-06 17:12 | 13.14559 | 79.79269 | 13566 ft | 378 kts | 280° |
| 2026-05-06 17:12 | 13.15026 | 79.76556 | 13744 ft | 395 kts | 280° |
| 2026-05-06 17:13 | 13.15509 | 79.73744 | 13963 ft | 404 kts | 280° |
| 2026-05-06 17:13 | 13.15997 | 79.70902 | 14412 ft | 405 kts | 280° |
| 2026-05-06 17:13 | 13.16486 | 79.68048 | 14872 ft | 407 kts | 280° |
| 2026-05-06 17:13 | 13.16976 | 79.65190 | 15344 ft | 408 kts | 280° |
| 2026-05-06 17:14 | 13.17469 | 79.62314 | 15721 ft | 410 kts | 280° |
| 2026-05-06 17:14 | 13.17964 | 79.59418 | 15850 ft | 411 kts | 280° |
| 2026-05-06 17:14 | 13.18456 | 79.56540 | 15877 ft | 411 kts | 280° |
| 2026-05-06 17:14 | 13.18952 | 79.53642 | 15884 ft | 411 kts | 280° |
| 2026-05-06 17:15 | 13.19444 | 79.50760 | 15886 ft | 411 kts | 280° |
| 2026-05-06 17:15 | 13.19938 | 79.47866 | 15881 ft | 411 kts | 280° |
| 2026-05-06 17:15 | 13.20430 | 79.44978 | 15876 ft | 411 kts | 280° |
| 2026-05-06 17:15 | 13.20922 | 79.42091 | 15879 ft | 411 kts | 280° |
| 2026-05-06 17:16 | 13.21414 | 79.39204 | 15875 ft | 411 kts | 280° |
| 2026-05-06 17:16 | 13.21907 | 79.36306 | 15887 ft | 411 kts | 280° |
| 2026-05-06 17:16 | 13.22374 | 79.33425 | 15876 ft | 410 kts | 277° |
| 2026-05-06 17:16 | 13.22595 | 79.30496 | 15886 ft | 410 kts | 274° |
| 2026-05-06 17:17 | 13.22772 | 79.27578 | 15897 ft | 410 kts | 274° |
| 2026-05-06 17:17 | 13.22937 | 79.24653 | 15888 ft | 410 kts | 274° |
| 2026-05-06 17:17 | 13.23100 | 79.21737 | 15901 ft | 410 kts | 274° |
| 2026-05-06 17:17 | 13.23266 | 79.18803 | 15895 ft | 410 kts | 274° |
| 2026-05-06 17:18 | 13.23432 | 79.15880 | 15900 ft | 410 kts | 274° |
| 2026-05-06 17:18 | 13.23599 | 79.12959 | 15900 ft | 410 kts | 274° |
| 2026-05-06 17:18 | 13.23767 | 79.10032 | 15912 ft | 410 kts | 274° |
| 2026-05-06 17:18 | 13.23934 | 79.07114 | 15910 ft | 409 kts | 274° |
| 2026-05-06 17:19 | 13.24101 | 79.04192 | 15905 ft | 410 kts | 274° |
| 2026-05-06 17:19 | 13.24267 | 79.01270 | 15916 ft | 410 kts | 274° |
| 2026-05-06 17:19 | 13.24433 | 78.98348 | 15907 ft | 410 kts | 274° |
| 2026-05-06 17:19 | 13.24598 | 78.95427 | 15921 ft | 410 kts | 274° |
| 2026-05-06 17:20 | 13.24763 | 78.92509 | 15914 ft | 410 kts | 274° |
| 2026-05-06 17:20 | 13.24927 | 78.89592 | 15927 ft | 410 kts | 274° |
| 2026-05-06 17:20 | 13.25093 | 78.86659 | 15921 ft | 410 kts | 274° |
| 2026-05-06 17:20 | 13.25258 | 78.83743 | 15930 ft | 410 kts | 274° |
| 2026-05-06 17:21 | 13.25423 | 78.80815 | 15925 ft | 410 kts | 274° |
| 2026-05-06 17:21 | 13.25587 | 78.77886 | 15938 ft | 410 kts | 274° |
| 2026-05-06 17:21 | 13.25750 | 78.74975 | 15941 ft | 410 kts | 274° |
| 2026-05-06 17:21 | 13.25912 | 78.72068 | 15934 ft | 397 kts | 274° |
| 2026-05-06 17:22 | 13.26062 | 78.69342 | 15938 ft | 380 kts | 274° |
| 2026-05-06 17:22 | 13.26216 | 78.66577 | 15938 ft | 386 kts | 274° |
| 2026-05-06 17:22 | 13.26367 | 78.63855 | 15949 ft | 386 kts | 274° |
| 2026-05-06 17:22 | 13.26521 | 78.61069 | 15946 ft | 385 kts | 274° |
| 2026-05-06 17:23 | 13.26673 | 78.58327 | 15944 ft | 386 kts | 274° |
| 2026-05-06 17:23 | 13.26822 | 78.55624 | 15947 ft | 386 kts | 274° |
| 2026-05-06 17:23 | 13.26973 | 78.52881 | 15953 ft | 386 kts | 274° |
| 2026-05-06 17:23 | 13.27127 | 78.50078 | 15961 ft | 386 kts | 274° |
| 2026-05-06 17:24 | 13.27279 | 78.47310 | 15951 ft | 401 kts | 274° |
| 2026-05-06 17:24 | 13.27441 | 78.44370 | 15952 ft | 410 kts | 274° |
| 2026-05-06 17:24 | 13.27600 | 78.41458 | 15948 ft | 409 kts | 274° |
| 2026-05-06 17:24 | 13.27758 | 78.38554 | 15611 ft | 406 kts | 274° |
| 2026-05-06 17:25 | 13.27914 | 78.35663 | 15034 ft | 403 kts | 274° |
| 2026-05-06 17:25 | 13.28068 | 78.32796 | 14322 ft | 399 kts | 274° |
| 2026-05-06 17:25 | 13.28219 | 78.29995 | 13479 ft | 396 kts | 274° |
| 2026-05-06 17:25 | 13.28370 | 78.27193 | 12549 ft | 393 kts | 274° |
| 2026-05-06 17:26 | 13.28522 | 78.24398 | 11652 ft | 389 kts | 274° |
| 2026-05-06 17:26 | 13.28672 | 78.21637 | 10869 ft | 385 kts | 274° |
| 2026-05-06 17:26 | 13.28815 | 78.18956 | 10602 ft | 365 kts | 274° |
| 2026-05-06 17:26 | 13.28949 | 78.16421 | 10409 ft | 345 kts | 274° |
| 2026-05-06 17:27 | 13.29075 | 78.14026 | 10237 ft | 326 kts | 275° |
| 2026-05-06 17:27 | 13.29195 | 78.11769 | 10070 ft | 308 kts | 275° |
| 2026-05-06 17:27 | 13.29310 | 78.09611 | 9578 ft | 301 kts | 275° |
| 2026-05-06 17:27 | 13.29427 | 78.07447 | 9079 ft | 297 kts | 275° |
| 2026-05-06 17:28 | 13.29542 | 78.05355 | 8564 ft | 296 kts | 275° |
| 2026-05-06 17:28 | 13.29655 | 78.03253 | 8264 ft | 296 kts | 274° |
| 2026-05-06 17:28 | 13.29730 | 78.01832 | 8098 ft | 296 kts | 274° |
| 2026-05-06 17:28 | 13.29842 | 77.99716 | 7830 ft | 294 kts | 274° |
| 2026-05-06 17:29 | 13.29952 | 77.97624 | 7561 ft | 294 kts | 274° |
| 2026-05-06 17:29 | 13.30062 | 77.95534 | 7302 ft | 293 kts | 274° |
| 2026-05-06 17:29 | 13.30173 | 77.93440 | 7062 ft | 292 kts | 274° |
| 2026-05-06 17:29 | 13.30283 | 77.91364 | 6806 ft | 291 kts | 274° |
| 2026-05-06 17:30 | 13.30392 | 77.89283 | 6559 ft | 291 kts | 274° |
| 2026-05-06 17:30 | 13.30500 | 77.87217 | 6299 ft | 289 kts | 274° |
| 2026-05-06 17:30 | 13.30609 | 77.85160 | 6077 ft | 289 kts | 274° |
| 2026-05-06 17:30 | 13.30718 | 77.83101 | 5994 ft | 288 kts | 274° |
| 2026-05-06 17:31 | 13.30826 | 77.81039 | 6004 ft | 289 kts | 274° |
| 2026-05-06 17:31 | 13.30934 | 77.78973 | 6004 ft | 290 kts | 273° |
| 2026-05-06 17:31 | 13.31032 | 77.76912 | 6006 ft | 289 kts | 272° |
| 2026-05-06 17:31 | 13.31063 | 77.74873 | 6003 ft | 289 kts | 271° |
| 2026-05-06 17:32 | 13.31062 | 77.72802 | 6001 ft | 290 kts | 270° |
| 2026-05-06 17:32 | 13.31057 | 77.70732 | 5993 ft | 287 kts | 270° |
| 2026-05-06 17:32 | 13.31061 | 77.68762 | 5998 ft | 264 kts | 271° |
| 2026-05-06 17:32 | 13.31069 | 77.66958 | 5988 ft | 242 kts | 271° |
| 2026-05-06 17:33 | 13.31080 | 77.65209 | 6005 ft | 247 kts | 271° |
| 2026-05-06 17:33 | 13.31092 | 77.63451 | 6006 ft | 245 kts | 271° |
| 2026-05-06 17:33 | 13.31107 | 77.61696 | 6007 ft | 245 kts | 271° |
| 2026-05-06 17:33 | 13.31120 | 77.59948 | 5999 ft | 245 kts | 271° |
| 2026-05-06 17:34 | 13.31128 | 77.58190 | 5998 ft | 246 kts | 271° |
| 2026-05-06 17:34 | 13.31136 | 77.56446 | 5991 ft | 246 kts | 271° |
| 2026-05-06 17:34 | 13.31145 | 77.54684 | 5998 ft | 245 kts | 271° |
| 2026-05-06 17:34 | 13.31153 | 77.52948 | 5990 ft | 244 kts | 271° |
| 2026-05-06 17:35 | 13.31160 | 77.51199 | 5996 ft | 246 kts | 271° |
| 2026-05-06 17:35 | 13.31166 | 77.49449 | 5989 ft | 243 kts | 271° |
| 2026-05-06 17:35 | 13.31171 | 77.47767 | 5983 ft | 226 kts | 271° |
| 2026-05-06 17:36 | 13.30612 | 77.44787 | 5975 ft | 216 kts | 247° |
| 2026-05-06 17:36 | 13.29708 | 77.43604 | 5986 ft | 210 kts | 213° |
| 2026-05-06 17:36 | 13.28363 | 77.43102 | 5992 ft | 207 kts | 180° |
| 2026-05-06 17:36 | 13.26918 | 77.43055 | 5982 ft | 206 kts | 175° |
| 2026-05-06 17:37 | 13.25591 | 77.43486 | 5997 ft | 201 kts | 141° |
| 2026-05-06 17:37 | 13.24697 | 77.44568 | 5997 ft | 198 kts | 118° |
| 2026-05-06 17:37 | 13.23991 | 77.45753 | 5987 ft | 196 kts | 118° |
| 2026-05-06 17:37 | 13.23280 | 77.46950 | 5988 ft | 196 kts | 118° |
| 2026-05-06 17:38 | 13.22564 | 77.48165 | 6002 ft | 197 kts | 118° |
| 2026-05-06 17:38 | 13.21864 | 77.49368 | 5994 ft | 195 kts | 118° |
| 2026-05-06 17:38 | 13.21235 | 77.50587 | 5992 ft | 194 kts | 109° |
| 2026-05-06 17:38 | 13.20932 | 77.51917 | 5996 ft | 194 kts | 95° |
| 2026-05-06 17:39 | 13.20853 | 77.53306 | 5861 ft | 192 kts | 90° |
| 2026-05-06 17:39 | 13.20844 | 77.54665 | 5597 ft | 190 kts | 90° |
| 2026-05-06 17:39 | 13.20827 | 77.56027 | 5359 ft | 190 kts | 90° |
| 2026-05-06 17:39 | 13.20817 | 77.57349 | 5113 ft | 179 kts | 91° |
| 2026-05-06 17:40 | 13.20804 | 77.58581 | 4898 ft | 166 kts | 91° |
| 2026-05-06 17:40 | 13.20795 | 77.59765 | 4705 ft | 169 kts | 91° |
| 2026-05-06 17:40 | 13.20783 | 77.60961 | 4480 ft | 164 kts | 92° |
| 2026-05-06 17:40 | 13.20774 | 77.62096 | 4283 ft | 157 kts | 92° |
| 2026-05-06 17:41 | 13.20765 | 77.63172 | 4080 ft | 144 kts | 92° |
| 2026-05-06 17:41 | 13.20753 | 77.64211 | 3934 ft | 148 kts | 92° |
| 2026-05-06 17:41 | 13.20741 | 77.65235 | 3741 ft | 142 kts | 92° |
| 2026-05-06 17:41 | 13.20731 | 77.66279 | 3521 ft | 146 kts | 91° |
| 2026-05-06 17:42 | 13.20737 | 77.67307 | 3355 ft | 146 kts | 90° |
| 2026-05-06 17:42 | 13.20748 | 77.68347 | 3141 ft | 144 kts | 91° |
| 2026-05-06 17:42 | 13.20709 | 77.69537 | 3037 ft | 178 kts | 91° |
| 2026-05-06 17:42 | 13.20697 | 77.70686 | 3018 ft | 137 kts | 90° |
| 2026-05-06 17:43 | 13.20696 | 77.71448 | 3017 ft | 55 kts | 90° |
| 2026-05-06 17:43 | 13.20688 | 77.71811 | 3017 ft | 49 kts | 92° |
| 2026-05-06 17:43 | 13.20692 | 77.72136 | 3017 ft | 26 kts | 96° |
| 2026-05-06 17:43 | 13.20628 | 77.72200 | 3018 ft | 13 kts | 168° |
| 2026-05-06 17:44 | 13.20542 | 77.72198 | 3018 ft | 9 kts | 202° |
| 2026-05-06 17:44 | 13.20512 | 77.72141 | 3017 ft | 10 kts | 242° |
| 2026-05-06 17:44 | 13.20451 | 77.72117 | 3017 ft | 10 kts | 183° |
| 2026-05-06 17:44 | 13.20376 | 77.72114 | 3017 ft | 12 kts | 181° |
| 2026-05-06 17:45 | 13.20292 | 77.72114 | 3017 ft | 13 kts | 180° |
| 2026-05-06 17:45 | 13.20199 | 77.72114 | 3017 ft | 14 kts | 180° |
| 2026-05-06 17:45 | 13.20108 | 77.72112 | 3017 ft | 13 kts | 181° |
| 2026-05-06 17:45 | 13.20011 | 77.72111 | 3017 ft | 15 kts | 181° |
| 2026-05-06 17:46 | 13.19954 | 77.72092 | 3017 ft | 5 kts | 229° |
| 2026-05-06 17:46 | 13.19949 | 77.72054 | 3017 ft | 6 kts | 267° |
| 2026-05-06 17:46 | 13.19950 | 77.72037 | 3017 ft | 1 kts | 271° |
| 2026-05-06 17:46 | 13.19950 | 77.72030 | 3017 ft | 0 kts | 271° |
| 2026-05-06 17:48 | 13.20719 | 77.68708 | 3017 ft | 0 kts | 90° |
| 2026-05-06 17:52 | 13.20719 | 77.68726 | 3017 ft | 14 kts | 90° |
| 2026-05-06 17:52 | 13.20713 | 77.69163 | 3017 ft | 108 kts | 91° |
| 2026-05-06 17:53 | 13.20575 | 77.70139 | 3018 ft | 145 kts | 102° |
| 2026-05-06 17:53 | 13.20297 | 77.71076 | 3019 ft | 126 kts | 109° |
| 2026-05-06 17:53 | 13.20142 | 77.71751 | 3017 ft | 49 kts | 88° |
| 2026-05-06 17:53 | 13.20260 | 77.71895 | 3017 ft | 19 kts | 3° |
| 2026-05-06 17:54 | 13.20305 | 77.71822 | 3017 ft | 14 kts | 257° |